createdAt,value
2018-07-21T00:00:29.215Z,998.07
2018-07-21T00:01:29.240Z,998.06
2018-07-21T00:02:29.205Z,998.06
2018-07-21T00:03:29.218Z,998.03
2018-07-21T00:04:29.188Z,998.06
2018-07-21T00:05:29.182Z,997.99
2018-07-21T00:06:29.167Z,998.05
2018-07-21T00:07:29.197Z,998.05
2018-07-21T00:08:29.287Z,998.02
2018-07-21T00:09:29.148Z,998.00
2018-07-21T00:10:29.152Z,997.95
2018-07-21T00:11:29.146Z,997.94
2018-07-21T00:12:29.147Z,997.91
2018-07-21T00:13:29.207Z,997.93
2018-07-21T00:14:29.130Z,997.92
2018-07-21T00:15:29.115Z,997.89
2018-07-21T00:16:29.116Z,997.94
2018-07-21T00:17:29.111Z,997.89
2018-07-21T00:18:29.103Z,997.97
2018-07-21T00:19:29.123Z,997.98
2018-07-21T00:20:29.100Z,997.96
2018-07-21T00:21:29.087Z,997.98
2018-07-21T00:22:29.106Z,997.97
2018-07-21T00:23:29.084Z,998.00
2018-07-21T00:24:29.064Z,998.03
2018-07-21T00:25:29.077Z,998.02
2018-07-21T00:26:29.049Z,998.04
2018-07-21T00:27:29.063Z,998.07
2018-07-21T00:28:29.054Z,998.15
2018-07-21T00:29:29.053Z,998.13
2018-07-21T00:30:29.044Z,998.19
2018-07-21T00:31:29.060Z,998.16
2018-07-21T00:32:29.040Z,998.13
2018-07-21T00:33:29.053Z,998.13
2018-07-21T00:34:29.007Z,998.08
2018-07-21T00:35:29.010Z,998.13
2018-07-21T00:36:28.999Z,998.10
2018-07-21T00:37:29.003Z,998.12
2018-07-21T00:38:29.025Z,998.12
2018-07-21T00:39:28.987Z,998.12
2018-07-21T00:40:28.979Z,998.10
2018-07-21T00:41:28.975Z,998.10
2018-07-21T00:42:28.987Z,998.15
2018-07-21T00:43:28.953Z,998.13
2018-07-21T00:44:28.963Z,998.13
2018-07-21T00:45:29.300Z,998.11
2018-07-21T00:46:28.943Z,998.14
2018-07-21T00:47:28.944Z,998.11
2018-07-21T00:48:28.926Z,998.10
2018-07-21T00:49:28.935Z,998.12
2018-07-21T00:50:28.928Z,998.18
2018-07-21T00:51:28.932Z,998.21
2018-07-21T00:52:28.921Z,998.20
2018-07-21T00:53:28.916Z,998.19
2018-07-21T00:54:28.909Z,998.20
2018-07-21T00:55:28.926Z,998.16
2018-07-21T00:56:28.884Z,998.20
2018-07-21T00:57:28.891Z,998.15
2018-07-21T00:58:28.874Z,998.19
2018-07-21T00:59:28.869Z,998.19
2018-07-21T01:00:28.861Z,998.21
2018-07-21T01:01:28.851Z,998.18
2018-07-21T01:02:28.906Z,998.14
2018-07-21T01:03:28.835Z,998.10
2018-07-21T01:04:28.840Z,998.11
2018-07-21T01:05:28.846Z,998.14
2018-07-21T01:06:28.830Z,998.13
2018-07-21T01:07:28.819Z,998.13
2018-07-21T01:08:28.860Z,998.13
2018-07-21T01:09:28.816Z,998.04
2018-07-21T01:10:28.805Z,998.05
2018-07-21T01:11:28.790Z,998.06
2018-07-21T01:12:28.791Z,998.04
2018-07-21T01:13:28.813Z,998.03
2018-07-21T01:14:28.780Z,998.02
2018-07-21T01:15:28.771Z,997.99
2018-07-21T01:16:28.769Z,998.01
2018-07-21T01:17:28.767Z,997.99
2018-07-21T01:18:28.753Z,997.98
2018-07-21T01:19:28.780Z,998.00
2018-07-21T01:20:28.754Z,998.00
2018-07-21T01:21:28.742Z,997.99
2018-07-21T01:22:28.738Z,997.98
2018-07-21T01:23:28.733Z,997.98
2018-07-21T01:24:28.728Z,997.94
2018-07-21T01:25:28.714Z,997.96
2018-07-21T01:26:28.702Z,997.95
2018-07-21T01:27:28.712Z,997.94
2018-07-21T01:28:28.701Z,997.90
2018-07-21T01:29:28.695Z,997.90
2018-07-21T01:30:28.725Z,997.89
2018-07-21T01:31:28.678Z,997.91
2018-07-21T01:32:28.675Z,997.89
2018-07-21T01:33:28.676Z,997.91
2018-07-21T01:34:28.686Z,997.89
2018-07-21T01:35:28.669Z,997.85
2018-07-21T01:36:28.652Z,997.82
2018-07-21T01:37:28.645Z,997.83
2018-07-21T01:38:28.638Z,997.84
2018-07-21T01:39:28.672Z,997.84
2018-07-21T01:40:28.677Z,997.87
2018-07-21T01:41:28.620Z,997.87
2018-07-21T01:42:28.616Z,997.89
2018-07-21T01:43:28.614Z,997.88
2018-07-21T01:44:28.602Z,997.88
2018-07-21T01:45:28.594Z,997.87
2018-07-21T01:46:28.611Z,997.86
2018-07-21T01:47:28.575Z,997.85
2018-07-21T01:48:28.588Z,997.83
2018-07-21T01:49:28.576Z,997.86
2018-07-21T01:50:28.573Z,997.82
2018-07-21T01:51:28.641Z,997.83
2018-07-21T01:52:28.559Z,997.87
2018-07-21T01:53:28.552Z,997.83
2018-07-21T01:54:28.544Z,997.83
2018-07-21T01:55:28.555Z,997.80
2018-07-21T01:56:28.534Z,997.81
2018-07-21T01:57:28.846Z,997.75
2018-07-21T01:58:28.519Z,997.79
2018-07-21T01:59:28.518Z,997.77
2018-07-21T02:00:28.514Z,997.80
2018-07-21T02:01:28.499Z,997.82
2018-07-21T02:02:28.500Z,997.81
2018-07-21T02:03:28.506Z,997.80
2018-07-21T02:04:28.485Z,997.81
2018-07-21T02:05:28.470Z,997.81
2018-07-21T02:06:28.467Z,997.79
2018-07-21T02:07:28.505Z,997.81
2018-07-21T02:08:28.502Z,997.80
2018-07-21T02:09:28.462Z,997.82
2018-07-21T02:10:28.457Z,997.83
2018-07-21T02:11:28.444Z,997.84
2018-07-21T02:12:28.436Z,997.83
2018-07-21T02:13:28.433Z,997.83
2018-07-21T02:14:28.444Z,997.85
2018-07-21T02:15:28.414Z,997.86
2018-07-21T02:16:28.411Z,997.86
2018-07-21T02:17:28.403Z,997.81
2018-07-21T02:18:28.424Z,997.86
2018-07-21T02:19:28.386Z,997.83
2018-07-21T02:20:28.383Z,997.86
2018-07-21T02:21:28.385Z,997.84
2018-07-21T02:22:28.390Z,997.85
2018-07-21T02:23:28.422Z,997.84
2018-07-21T02:24:28.365Z,997.87
2018-07-21T02:25:28.357Z,997.87
2018-07-21T02:26:28.341Z,997.85
2018-07-21T02:27:28.348Z,997.85
2018-07-21T02:28:28.337Z,997.84
2018-07-21T02:29:28.348Z,997.81
2018-07-21T02:30:28.319Z,997.85
2018-07-21T02:31:28.320Z,997.81
2018-07-21T02:32:28.316Z,997.79
2018-07-21T02:33:28.307Z,997.75
2018-07-21T02:34:28.341Z,997.80
2018-07-21T02:35:28.289Z,997.77
2018-07-21T02:36:28.294Z,997.75
2018-07-21T02:37:28.282Z,997.76
2018-07-21T02:38:28.308Z,997.77
2018-07-21T02:39:28.276Z,997.78
2018-07-21T02:40:28.267Z,997.85
2018-07-21T02:41:28.269Z,997.80
2018-07-21T02:42:28.256Z,997.76
2018-07-21T02:43:28.237Z,997.80
2018-07-21T02:44:28.253Z,997.75
2018-07-21T02:45:28.435Z,997.74
2018-07-21T02:46:28.240Z,997.73
2018-07-21T02:47:28.235Z,997.79
2018-07-21T02:48:28.208Z,997.78
2018-07-21T02:49:28.204Z,997.76
2018-07-21T02:50:28.205Z,997.75
2018-07-21T02:51:28.193Z,997.75
2018-07-21T02:52:28.195Z,997.70
2018-07-21T02:53:28.196Z,997.71
2018-07-21T02:54:28.172Z,997.69
2018-07-21T02:55:28.164Z,997.72
2018-07-21T02:56:28.212Z,997.72
2018-07-21T02:57:28.155Z,997.68
2018-07-21T02:58:28.152Z,997.70
2018-07-21T02:59:28.149Z,997.69
2018-07-21T03:00:28.181Z,997.71
2018-07-21T03:01:28.136Z,997.72
2018-07-21T03:02:28.125Z,997.70
2018-07-21T03:03:28.116Z,997.70
2018-07-21T03:04:28.118Z,997.69
2018-07-21T03:05:28.103Z,997.66
2018-07-21T03:06:28.125Z,997.70
2018-07-21T03:07:28.114Z,997.73
2018-07-21T03:08:28.091Z,997.71
2018-07-21T03:09:28.082Z,997.76
2018-07-21T03:10:28.079Z,997.74
2018-07-21T03:11:28.107Z,997.73
2018-07-21T03:12:28.059Z,997.76
2018-07-21T03:13:28.054Z,997.70
2018-07-21T03:14:28.078Z,997.72
2018-07-21T03:15:28.043Z,997.65
2018-07-21T03:16:28.039Z,997.68
2018-07-21T03:17:28.018Z,997.63
2018-07-21T03:18:28.009Z,997.58
2018-07-21T03:19:28.055Z,997.56
2018-07-21T03:20:28.006Z,997.60
2018-07-21T03:21:27.996Z,997.57
2018-07-21T03:22:27.994Z,997.58
2018-07-21T03:23:27.978Z,997.60
2018-07-21T03:24:27.984Z,997.61
2018-07-21T03:25:28.029Z,997.65
2018-07-21T03:26:27.961Z,997.66
2018-07-21T03:27:27.959Z,997.64
2018-07-21T03:28:27.949Z,997.66
2018-07-21T03:29:27.930Z,997.69
2018-07-21T03:30:27.951Z,997.66
2018-07-21T03:31:27.974Z,997.69
2018-07-21T03:32:27.927Z,997.66
2018-07-21T03:33:27.915Z,997.65
2018-07-21T03:34:27.906Z,997.68
2018-07-21T03:35:27.898Z,997.70
2018-07-21T03:36:27.916Z,997.68
2018-07-21T03:37:27.912Z,997.65
2018-07-21T03:38:27.879Z,997.65
2018-07-21T03:39:27.880Z,997.67
2018-07-21T03:40:27.913Z,997.65
2018-07-21T03:41:27.876Z,997.67
2018-07-21T03:42:27.852Z,997.72
2018-07-21T03:43:27.848Z,997.66
2018-07-21T03:44:27.825Z,997.68
2018-07-21T03:45:27.828Z,997.64
2018-07-21T03:46:27.883Z,997.61
2018-07-21T03:47:27.814Z,997.62
2018-07-21T03:48:27.793Z,997.60
2018-07-21T03:49:27.798Z,997.62
2018-07-21T03:50:27.792Z,997.58
2018-07-21T03:51:27.792Z,997.60
2018-07-21T03:52:27.820Z,997.57
2018-07-21T03:53:27.758Z,997.56
2018-07-21T03:54:27.765Z,997.50
2018-07-21T03:55:27.759Z,997.50
2018-07-21T03:56:27.754Z,997.50
2018-07-21T03:57:27.764Z,997.49
2018-07-21T03:58:27.731Z,997.49
2018-07-21T03:59:27.734Z,997.47
2018-07-21T04:00:27.724Z,997.47
2018-07-21T04:01:27.772Z,997.48
2018-07-21T04:02:27.705Z,997.47
2018-07-21T04:03:27.703Z,997.47
2018-07-21T04:04:27.684Z,997.49
2018-07-21T04:05:27.668Z,997.44
2018-07-21T04:06:27.667Z,997.46
2018-07-21T04:07:27.927Z,997.43
2018-07-21T04:08:27.660Z,997.40
2018-07-21T04:09:27.652Z,997.41
2018-07-21T04:10:27.644Z,997.38
2018-07-21T04:11:27.625Z,997.41
2018-07-21T04:12:27.628Z,997.40
2018-07-21T04:13:27.620Z,997.39
2018-07-21T04:14:27.609Z,997.40
2018-07-21T04:15:27.602Z,997.41
2018-07-21T04:16:27.632Z,997.40
2018-07-21T04:17:27.597Z,997.38
2018-07-21T04:18:27.631Z,997.44
2018-07-21T04:19:27.573Z,997.47
2018-07-21T04:20:27.575Z,997.52
2018-07-21T04:21:27.608Z,997.57
2018-07-21T04:22:27.602Z,997.56
2018-07-21T04:23:27.565Z,997.55
2018-07-21T04:24:27.909Z,997.54
2018-07-21T04:25:27.548Z,997.57
2018-07-21T04:26:27.539Z,997.54
2018-07-21T04:27:27.530Z,997.51
2018-07-21T04:28:27.527Z,997.50
2018-07-21T04:29:27.507Z,997.52
2018-07-21T04:30:27.509Z,997.52
2018-07-21T04:31:27.489Z,997.54
2018-07-21T04:32:27.480Z,997.50
2018-07-21T04:33:27.483Z,997.47
2018-07-21T04:34:27.463Z,997.55
2018-07-21T04:35:27.465Z,997.49
2018-07-21T04:36:27.485Z,997.51
2018-07-21T04:37:27.439Z,997.48
2018-07-21T04:38:27.442Z,997.53
2018-07-21T04:39:27.435Z,997.50
2018-07-21T04:40:27.429Z,997.48
2018-07-21T04:41:27.429Z,997.48
2018-07-21T04:42:27.436Z,997.52
2018-07-21T04:43:27.420Z,997.52
2018-07-21T04:44:27.390Z,997.52
2018-07-21T04:45:27.395Z,997.50
2018-07-21T04:46:27.413Z,997.52
2018-07-21T04:47:27.372Z,997.47
2018-07-21T04:48:27.379Z,997.48
2018-07-21T04:49:27.370Z,997.42
2018-07-21T04:50:27.355Z,997.41
2018-07-21T04:51:27.458Z,997.46
2018-07-21T04:52:27.331Z,997.47
2018-07-21T04:53:27.328Z,997.45
2018-07-21T04:54:27.331Z,997.45
2018-07-21T04:55:27.315Z,997.44
2018-07-21T04:56:27.313Z,997.44
2018-07-21T04:57:27.340Z,997.45
2018-07-21T04:58:27.295Z,997.44
2018-07-21T04:59:27.289Z,997.43
2018-07-21T05:00:27.280Z,997.43
2018-07-21T05:01:27.268Z,997.44
2018-07-21T05:02:27.269Z,997.43
2018-07-21T05:03:27.267Z,997.44
2018-07-21T05:04:27.249Z,997.45
2018-07-21T05:05:27.238Z,997.48
2018-07-21T05:06:27.231Z,997.46
2018-07-21T05:07:27.282Z,997.50
2018-07-21T05:08:27.256Z,997.39
2018-07-21T05:09:27.216Z,997.45
2018-07-21T05:10:27.213Z,997.47
2018-07-21T05:11:27.200Z,997.47
2018-07-21T05:12:27.190Z,997.47
2018-07-21T05:13:27.229Z,997.49
2018-07-21T05:14:27.182Z,997.51
2018-07-21T05:15:27.179Z,997.53
2018-07-21T05:16:27.188Z,997.53
2018-07-21T05:17:27.156Z,997.55
2018-07-21T05:18:27.148Z,997.55
2018-07-21T05:19:27.139Z,997.56
2018-07-21T05:20:27.162Z,997.56
2018-07-21T05:21:27.153Z,997.55
2018-07-21T05:22:27.119Z,997.58
2018-07-21T05:23:27.109Z,997.61
2018-07-21T05:24:27.092Z,997.59
2018-07-21T05:25:27.101Z,997.57
2018-07-21T05:26:27.189Z,997.60
2018-07-21T05:27:27.080Z,997.59
2018-07-21T05:28:27.075Z,997.60
2018-07-21T05:29:27.070Z,997.63
2018-07-21T05:30:27.078Z,997.59
2018-07-21T05:31:27.050Z,997.62
2018-07-21T05:32:27.039Z,997.60
2018-07-21T05:33:27.053Z,997.63
2018-07-21T05:34:27.022Z,997.64
2018-07-21T05:35:27.016Z,997.63
2018-07-21T05:36:27.013Z,997.63
2018-07-21T05:37:27.025Z,997.65
2018-07-21T05:38:26.986Z,997.67
2018-07-21T05:39:26.997Z,997.71
2018-07-21T05:40:26.989Z,997.69
2018-07-21T05:41:26.991Z,997.76
2018-07-21T05:42:26.970Z,997.73
2018-07-21T05:43:26.958Z,997.73
2018-07-21T05:44:26.960Z,997.74
2018-07-21T05:45:26.949Z,997.76
2018-07-21T05:46:26.943Z,997.74
2018-07-21T05:47:26.966Z,997.74
2018-07-21T05:48:26.951Z,997.74
2018-07-21T05:49:26.937Z,997.77
2018-07-21T05:50:26.929Z,997.72
2018-07-21T05:51:26.897Z,997.73
2018-07-21T05:52:26.891Z,997.72
2018-07-21T05:53:26.921Z,997.71
2018-07-21T05:54:26.908Z,997.72
2018-07-21T05:55:26.882Z,997.72
2018-07-21T05:56:26.870Z,997.70
2018-07-21T05:57:26.879Z,997.70
2018-07-21T05:58:26.890Z,997.69
2018-07-21T05:59:26.836Z,997.71
2018-07-21T06:00:26.829Z,997.74
2018-07-21T06:01:26.820Z,997.71
2018-07-21T06:02:26.839Z,997.73
2018-07-21T06:03:26.838Z,997.73
2018-07-21T06:04:26.804Z,997.75
2018-07-21T06:05:26.803Z,997.72
2018-07-21T06:06:26.790Z,997.75
2018-07-21T06:07:26.786Z,997.76
2018-07-21T06:08:26.770Z,997.76
2018-07-21T06:09:26.772Z,997.77
2018-07-21T06:10:26.773Z,997.78
2018-07-21T06:11:26.743Z,997.80
2018-07-21T06:12:26.750Z,997.84
2018-07-21T06:13:26.745Z,997.85
2018-07-21T06:14:26.933Z,997.87
2018-07-21T06:15:26.720Z,997.86
2018-07-21T06:16:26.710Z,997.87
2018-07-21T06:17:26.709Z,997.90
2018-07-21T06:18:26.699Z,997.90
2018-07-21T06:19:26.727Z,997.88
2018-07-21T06:20:26.685Z,997.85
2018-07-21T06:21:26.671Z,997.84
2018-07-21T06:22:26.697Z,997.88
2018-07-21T06:23:26.686Z,997.86
2018-07-21T06:24:26.658Z,997.89
2018-07-21T06:25:26.654Z,997.94
2018-07-21T06:26:26.696Z,997.91
2018-07-21T06:27:26.636Z,997.90
2018-07-21T06:28:26.628Z,997.90
2018-07-21T06:29:26.628Z,997.95
2018-07-21T06:30:26.607Z,997.91
2018-07-21T06:31:26.692Z,997.90
2018-07-21T06:32:26.603Z,997.95
2018-07-21T06:33:26.598Z,997.97
2018-07-21T06:34:26.594Z,997.98
2018-07-21T06:35:26.641Z,997.96
2018-07-21T06:36:26.579Z,997.98
2018-07-21T06:37:26.579Z,997.99
2018-07-21T06:38:26.618Z,997.99
2018-07-21T06:39:26.563Z,998.00
2018-07-21T06:40:26.539Z,998.01
2018-07-21T06:41:26.545Z,998.00
2018-07-21T06:42:26.533Z,998.03
2018-07-21T06:43:26.523Z,998.00
2018-07-21T06:44:26.522Z,998.00
2018-07-21T06:45:26.511Z,998.00
2018-07-21T06:46:26.505Z,998.00
2018-07-21T06:47:26.502Z,998.01
2018-07-21T06:48:26.502Z,997.99
2018-07-21T06:49:26.872Z,997.99
2018-07-21T06:50:26.479Z,997.96
2018-07-21T06:51:26.463Z,998.00
2018-07-21T06:52:26.469Z,998.03
2018-07-21T06:53:26.454Z,998.05
2018-07-21T06:54:26.510Z,998.06
2018-07-21T06:55:26.473Z,998.12
2018-07-21T06:56:26.428Z,998.10
2018-07-21T06:57:26.429Z,998.12
2018-07-21T06:58:26.430Z,998.10
2018-07-21T06:59:26.416Z,998.11
2018-07-21T07:00:26.432Z,998.13
2018-07-21T07:01:26.416Z,998.14
2018-07-21T07:02:26.392Z,998.16
2018-07-21T07:03:26.386Z,998.14
2018-07-21T07:04:26.392Z,998.18
2018-07-21T07:05:26.442Z,998.17
2018-07-21T07:06:26.382Z,998.17
2018-07-21T07:07:26.354Z,998.19
2018-07-21T07:08:26.364Z,998.20
2018-07-21T07:09:26.343Z,998.24
2018-07-21T07:10:26.344Z,998.20
2018-07-21T07:11:26.376Z,998.24
2018-07-21T07:12:26.683Z,998.26
2018-07-21T07:13:26.324Z,998.28
2018-07-21T07:14:26.314Z,998.28
2018-07-21T07:15:26.306Z,998.27
2018-07-21T07:16:26.320Z,998.35
2018-07-21T07:17:26.305Z,998.32
2018-07-21T07:18:26.320Z,998.31
2018-07-21T07:19:26.296Z,998.31
2018-07-21T07:20:26.284Z,998.35
2018-07-21T07:21:26.269Z,998.36
2018-07-21T07:22:26.297Z,998.36
2018-07-21T07:23:26.264Z,998.38
2018-07-21T07:24:26.330Z,998.37
2018-07-21T07:25:26.245Z,998.40
2018-07-21T07:26:26.227Z,998.39
2018-07-21T07:27:26.277Z,998.39
2018-07-21T07:28:26.239Z,998.39
2018-07-21T07:29:26.220Z,998.40
2018-07-21T07:30:26.278Z,998.36
2018-07-21T07:31:26.211Z,998.37
2018-07-21T07:32:26.208Z,998.38
2018-07-21T07:33:26.202Z,998.36
2018-07-21T07:34:26.181Z,998.34
2018-07-21T07:35:26.184Z,998.38
2018-07-21T07:36:26.221Z,998.40
2018-07-21T07:37:26.169Z,998.40
2018-07-21T07:38:26.167Z,998.39
2018-07-21T07:39:26.236Z,998.44
2018-07-21T07:40:26.139Z,998.44
2018-07-21T07:41:26.145Z,998.45
2018-07-21T07:42:26.133Z,998.48
2018-07-21T07:43:26.138Z,998.45
2018-07-21T07:44:26.124Z,998.46
2018-07-21T07:45:26.143Z,998.49
2018-07-21T07:46:26.109Z,998.52
2018-07-21T07:47:26.105Z,998.49
2018-07-21T07:48:26.104Z,998.48
2018-07-21T07:49:26.089Z,998.50
2018-07-21T07:50:26.157Z,998.53
2018-07-21T07:51:26.076Z,998.51
2018-07-21T07:52:26.060Z,998.48
2018-07-21T07:53:26.117Z,998.51
2018-07-21T07:54:26.063Z,998.48
2018-07-21T07:55:26.053Z,998.48
2018-07-21T07:56:26.042Z,998.48
2018-07-21T07:57:26.047Z,998.53
2018-07-21T07:58:26.028Z,998.48
2018-07-21T07:59:26.104Z,998.49
2018-07-21T08:00:26.071Z,998.48
2018-07-21T08:01:26.045Z,998.49
2018-07-21T08:02:26.009Z,998.51
2018-07-21T08:03:25.988Z,998.54
2018-07-21T08:04:26.004Z,998.55
2018-07-21T08:05:25.999Z,998.53
2018-07-21T08:06:26.006Z,998.56
2018-07-21T08:07:26.068Z,998.56
2018-07-21T08:08:25.991Z,998.57
2018-07-21T08:09:25.960Z,998.54
2018-07-21T08:10:25.949Z,998.55
2018-07-21T08:11:25.940Z,998.55
2018-07-21T08:12:25.983Z,998.58
2018-07-21T08:13:26.004Z,998.59
2018-07-21T08:14:26.058Z,998.58
2018-07-21T08:15:26.062Z,998.54
2018-07-21T08:16:25.914Z,998.53
2018-07-21T08:17:25.909Z,998.55
2018-07-21T08:18:25.912Z,998.52
2018-07-21T08:19:25.935Z,998.53
2018-07-21T08:20:25.899Z,998.53
2018-07-21T08:21:25.927Z,998.53
2018-07-21T08:22:25.873Z,998.56
2018-07-21T08:23:25.885Z,998.56
2018-07-21T08:24:25.866Z,998.55
2018-07-21T08:25:25.866Z,998.55
2018-07-21T08:26:25.853Z,998.53
2018-07-21T08:27:25.844Z,998.51
2018-07-21T08:28:25.885Z,998.48
2018-07-21T08:29:25.836Z,998.43
2018-07-21T08:30:25.831Z,998.41
2018-07-21T08:31:25.817Z,998.39
2018-07-21T08:32:25.811Z,998.37
2018-07-21T08:33:25.830Z,998.33
2018-07-21T08:34:25.829Z,998.32
2018-07-21T08:35:25.802Z,998.31
2018-07-21T08:36:25.796Z,998.28
2018-07-21T08:37:25.788Z,998.28
2018-07-21T08:38:25.828Z,998.30
2018-07-21T08:39:25.775Z,998.29
2018-07-21T08:40:25.765Z,998.27
2018-07-21T08:41:25.759Z,998.23
2018-07-21T08:42:25.754Z,998.25
2018-07-21T08:43:25.754Z,998.25
2018-07-21T08:44:25.775Z,998.22
2018-07-21T08:45:25.758Z,998.22
2018-07-21T08:46:25.731Z,998.19
2018-07-21T08:47:25.713Z,998.21
2018-07-21T08:48:25.730Z,998.22
2018-07-21T08:49:25.706Z,998.24
2018-07-21T08:50:25.750Z,998.22
2018-07-21T08:51:25.699Z,998.26
2018-07-21T08:52:25.690Z,998.28
2018-07-21T08:53:25.689Z,998.24
2018-07-21T08:54:25.707Z,998.23
2018-07-21T08:55:25.670Z,998.26
2018-07-21T08:56:25.736Z,998.26
2018-07-21T08:57:25.662Z,998.28
2018-07-21T08:58:25.648Z,998.31
2018-07-21T08:59:25.655Z,998.33
2018-07-21T09:00:25.634Z,998.33
2018-07-21T09:01:25.635Z,998.37
2018-07-21T09:02:25.738Z,998.40
2018-07-21T09:03:25.626Z,998.39
2018-07-21T09:04:25.618Z,998.35
2018-07-21T09:05:25.612Z,998.37
2018-07-21T09:06:25.603Z,998.38
2018-07-21T09:07:25.598Z,998.39
2018-07-21T09:08:25.607Z,998.37
2018-07-21T09:09:25.594Z,998.39
2018-07-21T09:10:25.576Z,998.34
2018-07-21T09:11:25.566Z,998.39
2018-07-21T09:12:25.589Z,998.35
2018-07-21T09:13:25.594Z,998.38
2018-07-21T09:14:25.561Z,998.38
2018-07-21T09:15:25.552Z,998.29
2018-07-21T09:16:25.561Z,998.35
2018-07-21T09:17:25.540Z,998.36
2018-07-21T09:18:25.602Z,998.35
2018-07-21T09:19:25.543Z,998.36
2018-07-21T09:20:25.513Z,998.38
2018-07-21T09:21:25.540Z,998.35
2018-07-21T09:22:25.502Z,998.39
2018-07-21T09:23:25.507Z,998.36
2018-07-21T09:24:25.565Z,998.36
2018-07-21T09:25:25.496Z,998.36
2018-07-21T09:26:25.502Z,998.42
2018-07-21T09:27:25.481Z,998.46
2018-07-21T09:28:25.460Z,998.46
2018-07-21T09:29:25.462Z,998.43
2018-07-21T09:30:25.462Z,998.46
2018-07-21T09:31:25.439Z,998.48
2018-07-21T09:32:25.439Z,998.53
2018-07-21T09:33:25.433Z,998.53
2018-07-21T09:34:25.490Z,998.57
2018-07-21T09:35:25.419Z,998.60
2018-07-21T09:36:25.429Z,998.60
2018-07-21T09:37:25.419Z,998.68
2018-07-21T09:38:25.402Z,998.74
2018-07-21T09:39:25.402Z,998.68
2018-07-21T09:40:25.403Z,998.76
2018-07-21T09:41:25.387Z,998.78
2018-07-21T09:42:25.384Z,998.81
2018-07-21T09:43:25.380Z,998.76
2018-07-21T09:44:25.362Z,998.80
2018-07-21T09:45:25.372Z,998.70
2018-07-21T09:46:25.368Z,998.81
2018-07-21T09:47:25.362Z,998.87
2018-07-21T09:48:25.353Z,998.88
2018-07-21T09:49:25.370Z,998.90
2018-07-21T09:50:25.382Z,998.79
2018-07-21T09:51:25.348Z,998.79
2018-07-21T09:52:25.351Z,998.84
2018-07-21T09:53:25.351Z,998.80
2018-07-21T09:54:25.341Z,998.92
2018-07-21T09:55:25.341Z,998.91
2018-07-21T09:56:25.349Z,998.84
2018-07-21T09:57:25.333Z,998.80
2018-07-21T09:58:25.366Z,998.84
2018-07-21T09:59:25.341Z,998.96
2018-07-21T10:00:25.330Z,998.96
2018-07-21T10:01:25.372Z,998.91
2018-07-21T10:02:25.329Z,998.98
2018-07-21T10:03:25.331Z,998.92
2018-07-21T10:04:25.335Z,998.95
2018-07-21T10:05:25.330Z,998.79
2018-07-21T10:06:25.382Z,998.79
2018-07-21T10:07:25.366Z,998.89
2018-07-21T10:08:25.336Z,998.94
2018-07-21T10:09:25.336Z,998.94
2018-07-21T10:10:25.339Z,998.87
2018-07-21T10:11:25.374Z,998.79
2018-07-21T10:12:25.393Z,998.84
2018-07-21T10:13:25.337Z,998.85
2018-07-21T10:14:25.355Z,998.86
2018-07-21T10:15:25.412Z,999.06
2018-07-21T10:16:25.342Z,999.09
2018-07-21T10:17:25.344Z,998.86
2018-07-21T10:18:25.345Z,998.86
2018-07-21T10:19:25.347Z,998.86
2018-07-21T10:20:25.350Z,998.86
2018-07-21T10:21:25.353Z,999.01
2018-07-21T10:22:25.357Z,998.94
2018-07-21T10:23:25.431Z,999.10
2018-07-21T10:24:25.342Z,998.94
2018-07-21T10:25:25.349Z,999.04
2018-07-21T10:26:25.341Z,999.07
2018-07-21T10:27:25.347Z,999.01
2018-07-21T10:28:25.388Z,998.89
2018-07-21T10:29:25.375Z,999.01
2018-07-21T10:30:25.392Z,999.00
2018-07-21T10:31:25.362Z,998.98
2018-07-21T10:32:25.359Z,998.92
2018-07-21T10:33:25.501Z,998.92
2018-07-21T10:34:25.358Z,999.00
2018-07-21T10:35:25.369Z,998.99
2018-07-21T10:36:25.369Z,998.95
2018-07-21T10:37:25.365Z,998.97
2018-07-21T10:38:25.368Z,998.99
2018-07-21T10:39:25.361Z,998.95
2018-07-21T10:40:25.417Z,998.92
2018-07-21T10:41:25.424Z,998.90
2018-07-21T10:42:25.370Z,998.89
2018-07-21T10:43:25.363Z,998.86
2018-07-21T10:44:25.381Z,998.85
2018-07-21T10:45:25.359Z,998.85
2018-07-21T10:46:25.399Z,998.84
2018-07-21T10:47:25.360Z,998.84
2018-07-21T10:48:25.364Z,998.83
2018-07-21T10:49:25.375Z,998.81
2018-07-21T10:50:25.400Z,998.76
2018-07-21T10:51:25.367Z,998.78
2018-07-21T10:52:25.363Z,998.74
2018-07-21T10:53:25.364Z,998.71
2018-07-21T10:54:25.364Z,998.71
2018-07-21T10:55:25.406Z,998.68
2018-07-21T10:56:25.361Z,998.67
2018-07-21T10:57:25.346Z,998.64
2018-07-21T10:58:25.351Z,998.65
2018-07-21T10:59:25.352Z,998.63
2018-07-21T11:00:25.348Z,998.62
2018-07-21T11:01:25.407Z,998.62
2018-07-21T11:02:25.350Z,998.62
2018-07-21T11:03:25.341Z,998.59
2018-07-21T11:04:25.332Z,998.63
2018-07-21T11:05:25.343Z,998.61
2018-07-21T11:06:25.333Z,998.59
2018-07-21T11:07:25.346Z,998.63
2018-07-21T11:08:25.353Z,998.66
2018-07-21T11:09:25.330Z,998.66
2018-07-21T11:10:25.326Z,998.65
2018-07-21T11:11:25.324Z,998.69
2018-07-21T11:12:25.328Z,998.69
2018-07-21T11:13:25.352Z,998.73
2018-07-21T11:14:25.321Z,998.77
2018-07-21T11:15:25.470Z,998.76
2018-07-21T11:16:25.311Z,998.77
2018-07-21T11:17:25.311Z,998.79
2018-07-21T11:18:25.630Z,998.79
2018-07-21T11:19:25.309Z,998.77
2018-07-21T11:20:25.295Z,998.79
2018-07-21T11:21:25.288Z,998.83
2018-07-21T11:22:25.298Z,998.82
2018-07-21T11:23:25.296Z,998.80
2018-07-21T11:24:25.325Z,998.80
2018-07-21T11:25:25.280Z,998.82
2018-07-21T11:26:25.272Z,998.78
2018-07-21T11:27:25.274Z,998.80
2018-07-21T11:28:25.304Z,998.80
2018-07-21T11:29:25.278Z,998.79
2018-07-21T11:30:25.322Z,998.81
2018-07-21T11:31:25.268Z,998.86
2018-07-21T11:32:25.266Z,998.82
2018-07-21T11:33:25.262Z,998.80
2018-07-21T11:34:25.253Z,998.76
2018-07-21T11:35:25.289Z,998.77
2018-07-21T11:36:25.369Z,998.80
2018-07-21T11:37:25.250Z,998.77
2018-07-21T11:38:25.258Z,998.75
2018-07-21T11:39:25.231Z,998.74
2018-07-21T11:40:25.248Z,998.77
2018-07-21T11:41:25.230Z,998.74
2018-07-21T11:42:25.236Z,998.76
2018-07-21T11:43:25.212Z,998.76
2018-07-21T11:44:25.254Z,998.76
2018-07-21T11:45:25.223Z,998.76
2018-07-21T11:46:25.248Z,998.77
2018-07-21T11:47:25.217Z,998.75
2018-07-21T11:48:25.198Z,998.73
2018-07-21T11:49:25.201Z,998.69
2018-07-21T11:50:25.197Z,998.71
2018-07-21T11:51:25.269Z,998.69
2018-07-21T11:52:25.182Z,998.70
2018-07-21T11:53:25.192Z,998.70
2018-07-21T11:54:25.183Z,998.72
2018-07-21T11:55:25.177Z,998.73
2018-07-21T11:56:25.169Z,998.74
2018-07-21T11:57:25.184Z,998.79
2018-07-21T11:58:25.166Z,998.82
2018-07-21T11:59:25.164Z,998.77
2018-07-21T12:00:25.157Z,998.77
2018-07-21T12:01:25.203Z,998.75
2018-07-21T12:02:25.145Z,998.75
2018-07-21T12:03:25.141Z,998.77
2018-07-21T12:04:25.157Z,998.73
2018-07-21T12:05:25.170Z,998.74
2018-07-21T12:06:25.137Z,998.75
2018-07-21T12:07:25.134Z,998.77
2018-07-21T12:08:25.134Z,998.79
2018-07-21T12:09:25.485Z,998.79
2018-07-21T12:10:25.126Z,998.80
2018-07-21T12:11:25.122Z,998.79
2018-07-21T12:12:25.119Z,998.79
2018-07-21T12:13:25.189Z,998.78
2018-07-21T12:14:25.113Z,998.81
2018-07-21T12:15:25.146Z,998.81
2018-07-21T12:16:25.120Z,998.83
2018-07-21T12:17:25.097Z,998.84
2018-07-21T12:18:25.103Z,998.85
2018-07-21T12:19:25.090Z,998.83
2018-07-21T12:20:25.191Z,998.84
2018-07-21T12:21:25.084Z,998.84
2018-07-21T12:22:25.091Z,998.82
2018-07-21T12:23:25.077Z,998.80
2018-07-21T12:24:25.072Z,998.82
2018-07-21T12:25:25.101Z,998.79
2018-07-21T12:26:25.084Z,998.78
2018-07-21T12:27:25.063Z,998.76
2018-07-21T12:28:25.144Z,998.77